Sea Thames — V2BV1 — position and weather

sailwx.info

Track history (hours):
 
Tides and Currents Weather Stations Pressure Air Temp Water Temp Dewpoint Dewpoint Depression Visibility Wind Speed Wind Dir Waves Ship Positions

Sea Thames

Last reported at 2014-Nov-27 01:06 UTC. Time now 2014-Nov-27 01:39 UTC.
Position N 51°34' E 002°07'.

Length 87 m; draft 3.3 m.

Type: Cargo ship. MMSI: 304933000.

Date/timePositionNaut miles runAvg speedWind from/ knotsBaromVisibWave heightAir tempDewpointWater temp
2014-Nov-27 01:06N 51°34' E 002°07'154 9.2
2014-Nov-26 08:19N 53°32' E 004°50'7 8.3
2014-Nov-26 07:29N 53°35' E 005°01'8 8.5
2014-Nov-26 06:33N 53°38' E 005°13'9 9.4
2014-Nov-26 05:33N 53°40' E 005°28'1010.2
2014-Nov-26 04:33N 53°44' E 005°45'49 9.8
2014-Nov-25 23:32N 53°57' E 007°05'9 8.3
2014-Nov-25 22:30N 53°59' E 007°19'8 8.2
2014-Nov-25 21:33N 54°00' E 007°32'8 8.5
2014-Nov-25 20:33N 54°02' E 007°46'9 9.3
2014-Nov-25 19:33N 54°01' E 008°02'1010.4
2014-Nov-25 18:33N 54°00' E 008°20'1211.9
2014-Nov-25 17:33N 53°57' E 008°39'1110.6
2014-Nov-25 16:33N 53°51' E 008°54'9 9.2
2014-Nov-25 15:33N 53°53' E 009°09'7 7.5
2014-Nov-25 14:33N 53°50' E 009°21'7 6.8
2014-Nov-25 13:33N 53°44' E 009°26'6 6.4
2014-Nov-25 12:33N 53°39' E 009°31'8 8.1
2014-Nov-25 11:33N 53°34' E 009°43'9 8.8
2014-Nov-25 10:33N 53°33' E 009°57'2 1.7
2014-Nov-25 09:30N 53°32' E 009°60'0 0.0
2014-Nov-25 08:33N 53°32' E 009°60'0 0.0
2014-Nov-25 07:33N 53°32' E 009°60'0 0.0
2014-Nov-25 06:30N 53°32' E 009°60'0 0.0
2014-Nov-25 05:33N 53°32' E 009°60'0 0.0
2014-Nov-25 04:27N 53°32' E 009°60'0 0.0
2014-Nov-25 03:33N 53°32' E 009°60'2 2.0
2014-Nov-25 02:33N 53°33' E 009°57'10 9.7
2014-Nov-25 01:34N 53°34' E 009°41'1110.9
2014-Nov-25 00:33N 53°42' E 009°29'1111.1
2014-Nov-24 23:34N 53°51' E 009°18'1010.0
2014-Nov-24 22:33N 53°51' E 009°01'9 8.7
2014-Nov-24 21:34N 53°51' E 008°46'8 7.8
2014-Nov-24 20:33N 53°57' E 008°38'8 7.8
2014-Nov-24 19:33N 53°59' E 008°25'9 8.8
2014-Nov-24 18:33N 53°59' E 008°11'6 6.2
2014-Nov-24 17:33N 54°04' E 008°04'8 7.9
2014-Nov-24 16:33N 54°11' E 008°10'8 7.8
2014-Nov-24 15:33N 54°17' E 008°19'8 7.8
2014-Nov-24 14:33N 54°21' E 008°31'8 7.1
2014-Nov-24 13:29N 54°27' E 008°40'  
2014-Nov-19 19:33N 54°26' E 008°36'9 9.3
2014-Nov-19 18:33N 54°19' E 008°26'9 8.9
2014-Nov-19 17:33N 54°11' E 008°19'10 9.7
2014-Nov-19 16:33N 54°02' E 008°15'8 7.7
2014-Nov-19 15:33N 53°59' E 008°03'6 6.3
2014-Nov-19 14:33N 53°57' E 007°52'59 5.8
2014-Nov-19 04:26N 53°43' E 006°15'6 7.0
2014-Nov-19 03:32N 53°41' E 006°05'7 7.0
2014-Nov-19 02:33N 53°39' E 005°54'7 7.1
2014-Nov-19 01:33N 53°37' E 005°43'7 6.7
2014-Nov-19 00:33N 53°35' E 005°32'6 6.2
2014-Nov-18 23:33N 53°33' E 005°22'6 6.1
2014-Nov-18 22:33N 53°31' E 005°12'6 6.2
2014-Nov-18 21:33N 53°29' E 005°03'6 6.0
2014-Nov-18 20:33N 53°26' E 004°54'78 7.8
2014-Nov-18 10:32N 52°17' E 003°52'1110.9
2014-Nov-18 09:32N 52°06' E 003°56'1010.3
2014-Nov-18 08:33N 51°58' E 004°06'4 3.9
2014-Nov-18 07:32N 51°56' E 004°11'0 0.0
2014-Nov-18 06:29N 51°56' E 004°11'0 0.0
2014-Nov-18 05:29N 51°56' E 004°11'0 0.0
2014-Nov-18 04:32N 51°56' E 004°11'0 0.0
2014-Nov-18 03:32N 51°56' E 004°11'0 0.0
2014-Nov-18 02:32N 51°56' E 004°11'0 0.0
2014-Nov-18 01:32N 51°56' E 004°11'0 0.0
2014-Nov-18 00:32N 51°56' E 004°11'0 0.0
2014-Nov-17 23:29N 51°56' E 004°11'0 0.0
2014-Nov-17 22:32N 51°56' E 004°11'0 0.0
2014-Nov-17 21:32N 51°56' E 004°11'0 0.0
2014-Nov-17 20:29N 51°56' E 004°11'0 0.0
2014-Nov-17 19:32N 51°56' E 004°11'0 0.0
2014-Nov-17 18:32N 51°56' E 004°11'0 0.0
2014-Nov-17 17:29N 51°56' E 004°11'0 0.0
2014-Nov-17 16:29N 51°56' E 004°11'0 0.0
2014-Nov-17 15:32N 51°56' E 004°11'0 0.0
2014-Nov-17 14:32N 51°56' E 004°11'0 0.0
2014-Nov-17 13:32N 51°56' E 004°11'0 0.0
2014-Nov-17 12:32N 51°56' E 004°11'0 0.0
2014-Nov-17 11:32N 51°56' E 004°11'0 0.0
2014-Nov-17 10:32N 51°56' E 004°11'0 0.0
2014-Nov-17 09:32N 51°56' E 004°11'0 0.0
2014-Nov-17 08:26N 51°56' E 004°11'0 0.0
2014-Nov-17 07:23N 51°56' E 004°11'0 0.0
2014-Nov-17 06:29N 51°56' E 004°11'0 0.0
2014-Nov-17 05:29N 51°56' E 004°11'0 0.0
2014-Nov-17 04:32N 51°56' E 004°11'0 0.0
2014-Nov-17 03:32N 51°56' E 004°11'0 0.0
2014-Nov-17 02:32N 51°56' E 004°11'0 0.0
2014-Nov-17 01:32N 51°56' E 004°11'  
Track history (hours):
 
Tides and Currents Weather Stations Pressure Air Temp Water Temp Dewpoint Dewpoint Depression Visibility Wind Speed Wind Dir Waves Ship Positions

Sea Thames

Last reported at 2014-Nov-27 01:06 UTC. Time now 2014-Nov-27 01:39 UTC.
Position N 51°34' E 002°07'.

Length 87 m; draft 3.3 m.

Type: Cargo ship. MMSI: 304933000.

Date/timePositionNaut miles runAvg speedWind from/ knotsBaromVisibWave heightAir tempDewpointWater temp
2014-Nov-27 01:06N 51°34' E 002°07'154 9.2
2014-Nov-26 08:19N 53°32' E 004°50'7 8.3
2014-Nov-26 07:29N 53°35' E 005°01'8 8.5
2014-Nov-26 06:33N 53°38' E 005°13'9 9.4
2014-Nov-26 05:33N 53°40' E 005°28'1010.2
2014-Nov-26 04:33N 53°44' E 005°45'49 9.8
2014-Nov-25 23:32N 53°57' E 007°05'9 8.3
2014-Nov-25 22:30N 53°59' E 007°19'8 8.2
2014-Nov-25 21:33N 54°00' E 007°32'8 8.5
2014-Nov-25 20:33N 54°02' E 007°46'9 9.3
2014-Nov-25 19:33N 54°01' E 008°02'1010.4
2014-Nov-25 18:33N 54°00' E 008°20'1211.9
2014-Nov-25 17:33N 53°57' E 008°39'1110.6
2014-Nov-25 16:33N 53°51' E 008°54'9 9.2
2014-Nov-25 15:33N 53°53' E 009°09'7 7.5
2014-Nov-25 14:33N 53°50' E 009°21'7 6.8
2014-Nov-25 13:33N 53°44' E 009°26'6 6.4
2014-Nov-25 12:33N 53°39' E 009°31'8 8.1
2014-Nov-25 11:33N 53°34' E 009°43'9 8.8
2014-Nov-25 10:33N 53°33' E 009°57'2 1.7
2014-Nov-25 09:30N 53°32' E 009°60'0 0.0
2014-Nov-25 08:33N 53°32' E 009°60'0 0.0
2014-Nov-25 07:33N 53°32' E 009°60'0 0.0
2014-Nov-25 06:30N 53°32' E 009°60'0 0.0
2014-Nov-25 05:33N 53°32' E 009°60'0 0.0
2014-Nov-25 04:27N 53°32' E 009°60'0 0.0
2014-Nov-25 03:33N 53°32' E 009°60'2 2.0
2014-Nov-25 02:33N 53°33' E 009°57'10 9.7
2014-Nov-25 01:34N 53°34' E 009°41'1110.9
2014-Nov-25 00:33N 53°42' E 009°29'1111.1
2014-Nov-24 23:34N 53°51' E 009°18'1010.0
2014-Nov-24 22:33N 53°51' E 009°01'9 8.7
2014-Nov-24 21:34N 53°51' E 008°46'8 7.8
2014-Nov-24 20:33N 53°57' E 008°38'8 7.8
2014-Nov-24 19:33N 53°59' E 008°25'9 8.8
2014-Nov-24 18:33N 53°59' E 008°11'6 6.2
2014-Nov-24 17:33N 54°04' E 008°04'8 7.9
2014-Nov-24 16:33N 54°11' E 008°10'8 7.8
2014-Nov-24 15:33N 54°17' E 008°19'8 7.8
2014-Nov-24 14:33N 54°21' E 008°31'8 7.1
2014-Nov-24 13:29N 54°27' E 008°40'  
2014-Nov-19 19:33N 54°26' E 008°36'9 9.3
2014-Nov-19 18:33N 54°19' E 008°26'9 8.9
2014-Nov-19 17:33N 54°11' E 008°19'10 9.7
2014-Nov-19 16:33N 54°02' E 008°15'8 7.7
2014-Nov-19 15:33N 53°59' E 008°03'6 6.3
2014-Nov-19 14:33N 53°57' E 007°52'59 5.8
2014-Nov-19 04:26N 53°43' E 006°15'6 7.0
2014-Nov-19 03:32N 53°41' E 006°05'7 7.0
2014-Nov-19 02:33N 53°39' E 005°54'7 7.1
2014-Nov-19 01:33N 53°37' E 005°43'7 6.7
2014-Nov-19 00:33N 53°35' E 005°32'6 6.2
2014-Nov-18 23:33N 53°33' E 005°22'6 6.1
2014-Nov-18 22:33N 53°31' E 005°12'6 6.2
2014-Nov-18 21:33N 53°29' E 005°03'6 6.0
2014-Nov-18 20:33N 53°26' E 004°54'78 7.8
2014-Nov-18 10:32N 52°17' E 003°52'1110.9
2014-Nov-18 09:32N 52°06' E 003°56'1010.3
2014-Nov-18 08:33N 51°58' E 004°06'4 3.9
2014-Nov-18 07:32N 51°56' E 004°11'0 0.0
2014-Nov-18 06:29N 51°56' E 004°11'0 0.0
2014-Nov-18 05:29N 51°56' E 004°11'0 0.0
2014-Nov-18 04:32N 51°56' E 004°11'0 0.0
2014-Nov-18 03:32N 51°56' E 004°11'0 0.0
2014-Nov-18 02:32N 51°56' E 004°11'0 0.0
2014-Nov-18 01:32N 51°56' E 004°11'0 0.0
2014-Nov-18 00:32N 51°56' E 004°11'0 0.0
2014-Nov-17 23:29N 51°56' E 004°11'0 0.0
2014-Nov-17 22:32N 51°56' E 004°11'0 0.0
2014-Nov-17 21:32N 51°56' E 004°11'0 0.0
2014-Nov-17 20:29N 51°56' E 004°11'0 0.0
2014-Nov-17 19:32N 51°56' E 004°11'0 0.0
2014-Nov-17 18:32N 51°56' E 004°11'0 0.0
2014-Nov-17 17:29N 51°56' E 004°11'0 0.0
2014-Nov-17 16:29N 51°56' E 004°11'0 0.0
2014-Nov-17 15:32N 51°56' E 004°11'0 0.0
2014-Nov-17 14:32N 51°56' E 004°11'0 0.0
2014-Nov-17 13:32N 51°56' E 004°11'0 0.0
2014-Nov-17 12:32N 51°56' E 004°11'0 0.0
2014-Nov-17 11:32N 51°56' E 004°11'0 0.0
2014-Nov-17 10:32N 51°56' E 004°11'0 0.0
2014-Nov-17 09:32N 51°56' E 004°11'0 0.0
2014-Nov-17 08:26N 51°56' E 004°11'0 0.0
2014-Nov-17 07:23N 51°56' E 004°11'0 0.0
2014-Nov-17 06:29N 51°56' E 004°11'0 0.0
2014-Nov-17 05:29N 51°56' E 004°11'0 0.0
2014-Nov-17 04:32N 51°56' E 004°11'0 0.0
2014-Nov-17 03:32N 51°56' E 004°11'0 0.0
2014-Nov-17 02:32N 51°56' E 004°11'0 0.0
2014-Nov-17 01:32N 51°56' E 004°11'  

Dump ship's entire track history